sensor_id;sensor_type;location;lat;lon;timestamp;P1;durP1;ratioP1;P2;durP2;ratioP2
38427;SDS011;24211;49.980;19.776;2023-04-09T00:01:12;36.40;;;16.13;;
38427;SDS011;24211;49.980;19.776;2023-04-09T00:03:39;38.05;;;16.80;;
38427;SDS011;24211;49.980;19.776;2023-04-09T00:06:06;38.47;;;16.02;;
38427;SDS011;24211;49.980;19.776;2023-04-09T00:08:34;41.15;;;17.63;;
38427;SDS011;24211;49.980;19.776;2023-04-09T00:11:01;36.88;;;15.50;;
38427;SDS011;24211;49.980;19.776;2023-04-09T00:13:29;37.83;;;16.42;;
38427;SDS011;24211;49.980;19.776;2023-04-09T00:16:06;39.50;;;16.83;;
38427;SDS011;24211;49.980;19.776;2023-04-09T00:18:34;32.35;;;15.07;;
38427;SDS011;24211;49.980;19.776;2023-04-09T00:21:01;38.83;;;17.35;;
38427;SDS011;24211;49.980;19.776;2023-04-09T00:23:29;38.72;;;16.48;;
38427;SDS011;24211;49.980;19.776;2023-04-09T00:25:56;35.75;;;16.27;;
38427;SDS011;24211;49.980;19.776;2023-04-09T00:28:23;38.40;;;17.23;;
38427;SDS011;24211;49.980;19.776;2023-04-09T00:30:51;38.95;;;16.77;;
38427;SDS011;24211;49.980;19.776;2023-04-09T00:33:18;41.28;;;17.83;;
38427;SDS011;24211;49.980;19.776;2023-04-09T00:35:45;37.28;;;17.38;;
38427;SDS011;24211;49.980;19.776;2023-04-09T00:38:13;41.28;;;18.23;;
38427;SDS011;24211;49.980;19.776;2023-04-09T00:40:40;43.47;;;18.38;;
38427;SDS011;24211;49.980;19.776;2023-04-09T00:43:07;44.35;;;19.40;;
38427;SDS011;24211;49.980;19.776;2023-04-09T00:45:35;43.38;;;18.90;;
38427;SDS011;24211;49.980;19.776;2023-04-09T00:48:03;44.58;;;18.95;;
38427;SDS011;24211;49.980;19.776;2023-04-09T00:50:31;42.63;;;19.17;;
38427;SDS011;24211;49.980;19.776;2023-04-09T00:52:58;43.25;;;18.67;;
38427;SDS011;24211;49.980;19.776;2023-04-09T00:55:26;44.97;;;18.33;;
38427;SDS011;24211;49.980;19.776;2023-04-09T00:57:55;40.20;;;18.48;;
38427;SDS011;24211;49.980;19.776;2023-04-09T01:00:22;40.83;;;18.50;;
38427;SDS011;24211;49.980;19.776;2023-04-09T01:02:49;37.75;;;18.13;;
38427;SDS011;24211;49.980;19.776;2023-04-09T01:05:19;38.58;;;18.10;;
38427;SDS011;24211;49.980;19.776;2023-04-09T01:10:52;36.88;;;17.00;;
38427;SDS011;24211;49.980;19.776;2023-04-09T01:13:49;36.67;;;15.98;;
38427;SDS011;24211;49.980;19.776;2023-04-09T01:25:58;36.13;;;15.57;;
38427;SDS011;24211;49.980;19.776;2023-04-09T01:28:53;36.00;;;16.15;;
38427;SDS011;24211;49.980;19.776;2023-04-09T01:31:25;37.85;;;16.35;;
38427;SDS011;24211;49.980;19.776;2023-04-09T01:33:58;35.42;;;15.40;;
38427;SDS011;24211;49.980;19.776;2023-04-09T01:36:27;36.15;;;16.25;;
38427;SDS011;24211;49.980;19.776;2023-04-09T01:39:01;35.75;;;15.80;;
38427;SDS011;24211;49.980;19.776;2023-04-09T01:41:30;31.55;;;14.38;;
38427;SDS011;24211;49.980;19.776;2023-04-09T01:44:00;37.65;;;16.10;;
38427;SDS011;24211;49.980;19.776;2023-04-09T01:46:31;33.03;;;14.80;;
38427;SDS011;24211;49.980;19.776;2023-04-09T01:49:00;32.35;;;14.93;;
38427;SDS011;24211;49.980;19.776;2023-04-09T01:51:28;34.10;;;15.05;;
38427;SDS011;24211;49.980;19.776;2023-04-09T01:53:57;34.83;;;15.07;;
38427;SDS011;24211;49.980;19.776;2023-04-09T01:56:41;34.83;;;15.25;;
38427;SDS011;24211;49.980;19.776;2023-04-09T01:59:10;32.07;;;14.60;;
38427;SDS011;24211;49.980;19.776;2023-04-09T02:01:46;34.85;;;14.63;;
38427;SDS011;24211;49.980;19.776;2023-04-09T02:05:02;32.58;;;14.07;;
38427;SDS011;24211;49.980;19.776;2023-04-09T02:07:20;30.90;;;14.40;;
38427;SDS011;24211;49.980;19.776;2023-04-09T02:10:06;32.20;;;14.85;;
38427;SDS011;24211;49.980;19.776;2023-04-09T02:12:38;33.53;;;14.32;;
38427;SDS011;24211;49.980;19.776;2023-04-09T02:15:11;34.25;;;15.43;;
38427;SDS011;24211;49.980;19.776;2023-04-09T02:17:39;36.13;;;15.50;;
38427;SDS011;24211;49.980;19.776;2023-04-09T02:20:07;35.35;;;15.77;;
38427;SDS011;24211;49.980;19.776;2023-04-09T02:22:35;36.40;;;15.73;;
38427;SDS011;24211;49.980;19.776;2023-04-09T02:25:02;39.10;;;16.30;;
38427;SDS011;24211;49.980;19.776;2023-04-09T02:27:30;35.38;;;16.10;;
38427;SDS011;24211;49.980;19.776;2023-04-09T02:29:57;36.42;;;17.13;;
38427;SDS011;24211;49.980;19.776;2023-04-09T02:32:24;42.17;;;19.02;;
38427;SDS011;24211;49.980;19.776;2023-04-09T02:34:52;41.65;;;18.23;;
38427;SDS011;24211;49.980;19.776;2023-04-09T02:37:19;41.13;;;17.95;;
38427;SDS011;24211;49.980;19.776;2023-04-09T02:39:47;41.70;;;18.02;;
38427;SDS011;24211;49.980;19.776;2023-04-09T02:42:14;39.17;;;17.73;;
38427;SDS011;24211;49.980;19.776;2023-04-09T02:44:41;39.75;;;18.63;;
38427;SDS011;24211;49.980;19.776;2023-04-09T02:47:11;40.08;;;19.02;;
38427;SDS011;24211;49.980;19.776;2023-04-09T02:49:38;36.63;;;17.55;;
38427;SDS011;24211;49.980;19.776;2023-04-09T02:52:05;38.67;;;18.27;;
38427;SDS011;24211;49.980;19.776;2023-04-09T02:54:35;42.35;;;19.13;;
38427;SDS011;24211;49.980;19.776;2023-04-09T02:57:02;38.60;;;18.25;;
38427;SDS011;24211;49.980;19.776;2023-04-09T02:59:29;37.78;;;16.98;;
38427;SDS011;24211;49.980;19.776;2023-04-09T03:01:58;37.80;;;16.85;;
38427;SDS011;24211;49.980;19.776;2023-04-09T03:04:26;36.55;;;17.02;;
38427;SDS011;24211;49.980;19.776;2023-04-09T03:06:53;35.47;;;16.80;;
38427;SDS011;24211;49.980;19.776;2023-04-09T03:09:20;39.85;;;16.92;;
38427;SDS011;24211;49.980;19.776;2023-04-09T03:11:47;35.10;;;16.77;;
38427;SDS011;24211;49.980;19.776;2023-04-09T03:14:15;37.78;;;16.50;;
38427;SDS011;24211;49.980;19.776;2023-04-09T03:16:43;36.17;;;16.83;;
38427;SDS011;24211;49.980;19.776;2023-04-09T03:19:10;35.28;;;16.92;;
38427;SDS011;24211;49.980;19.776;2023-04-09T03:21:37;37.33;;;17.33;;
38427;SDS011;24211;49.980;19.776;2023-04-09T03:24:05;35.72;;;16.10;;
38427;SDS011;24211;49.980;19.776;2023-04-09T03:26:32;34.53;;;16.85;;
38427;SDS011;24211;49.980;19.776;2023-04-09T03:31:32;35.75;;;15.75;;
38427;SDS011;24211;49.980;19.776;2023-04-09T03:34:01;31.40;;;14.57;;
38427;SDS011;24211;49.980;19.776;2023-04-09T03:36:30;35.35;;;15.15;;
38427;SDS011;24211;49.980;19.776;2023-04-09T03:39:03;32.35;;;14.95;;
38427;SDS011;24211;49.980;19.776;2023-04-09T03:41:36;32.15;;;14.75;;
38427;SDS011;24211;49.980;19.776;2023-04-09T03:44:10;30.50;;;14.02;;
38427;SDS011;24211;49.980;19.776;2023-04-09T03:46:54;31.80;;;15.18;;
38427;SDS011;24211;49.980;19.776;2023-04-09T03:49:23;30.63;;;14.50;;
38427;SDS011;24211;49.980;19.776;2023-04-09T03:51:54;31.73;;;14.50;;
38427;SDS011;24211;49.980;19.776;2023-04-09T03:54:27;29.15;;;13.45;;
38427;SDS011;24211;49.980;19.776;2023-04-09T03:56:57;35.85;;;15.35;;
38427;SDS011;24211;49.980;19.776;2023-04-09T03:59:24;36.17;;;15.88;;
38427;SDS011;24211;49.980;19.776;2023-04-09T04:01:52;30.17;;;13.85;;
38427;SDS011;24211;49.980;19.776;2023-04-09T04:04:19;34.65;;;14.95;;
38427;SDS011;24211;49.980;19.776;2023-04-09T04:06:53;30.20;;;13.40;;
38427;SDS011;24211;49.980;19.776;2023-04-09T04:09:28;28.90;;;14.23;;
38427;SDS011;24211;49.980;19.776;2023-04-09T04:12:03;30.70;;;14.32;;
38427;SDS011;24211;49.980;19.776;2023-04-09T04:14:46;32.22;;;14.48;;
38427;SDS011;24211;49.980;19.776;2023-04-09T04:17:23;32.05;;;13.73;;
38427;SDS011;24211;49.980;19.776;2023-04-09T04:19:51;30.17;;;14.80;;
38427;SDS011;24211;49.980;19.776;2023-04-09T04:22:19;34.55;;;15.38;;
38427;SDS011;24211;49.980;19.776;2023-04-09T04:24:50;34.22;;;15.75;;
38427;SDS011;24211;49.980;19.776;2023-04-09T04:27:20;36.08;;;15.18;;
38427;SDS011;24211;49.980;19.776;2023-04-09T04:29:47;33.88;;;15.30;;
38427;SDS011;24211;49.980;19.776;2023-04-09T04:32:25;32.42;;;14.75;;
38427;SDS011;24211;49.980;19.776;2023-04-09T04:34:54;32.13;;;14.57;;
38427;SDS011;24211;49.980;19.776;2023-04-09T04:37:24;30.95;;;14.18;;
38427;SDS011;24211;49.980;19.776;2023-04-09T04:39:56;32.27;;;14.13;;
38427;SDS011;24211;49.980;19.776;2023-04-09T04:42:24;32.03;;;13.55;;
38427;SDS011;24211;49.980;19.776;2023-04-09T04:44:51;30.60;;;13.50;;
38427;SDS011;24211;49.980;19.776;2023-04-09T04:47:34;29.98;;;14.02;;
38427;SDS011;24211;49.980;19.776;2023-04-09T04:50:03;32.03;;;14.07;;
38427;SDS011;24211;49.980;19.776;2023-04-09T04:52:40;30.83;;;14.07;;
38427;SDS011;24211;49.980;19.776;2023-04-09T04:55:08;32.28;;;14.95;;
38427;SDS011;24211;49.980;19.776;2023-04-09T04:57:35;29.77;;;14.07;;
38427;SDS011;24211;49.980;19.776;2023-04-09T05:00:03;31.45;;;14.57;;
38427;SDS011;24211;49.980;19.776;2023-04-09T05:02:31;30.08;;;13.88;;
38427;SDS011;24211;49.980;19.776;2023-04-09T05:05:18;32.80;;;13.90;;
38427;SDS011;24211;49.980;19.776;2023-04-09T05:07:51;31.30;;;14.95;;
38427;SDS011;24211;49.980;19.776;2023-04-09T05:10:19;36.30;;;16.13;;
38427;SDS011;24211;49.980;19.776;2023-04-09T05:12:46;34.20;;;15.38;;
38427;SDS011;24211;49.980;19.776;2023-04-09T05:15:22;33.17;;;15.82;;
38427;SDS011;24211;49.980;19.776;2023-04-09T05:17:50;31.73;;;15.23;;
38427;SDS011;24211;49.980;19.776;2023-04-09T05:20:17;39.08;;;16.85;;
38427;SDS011;24211;49.980;19.776;2023-04-09T05:22:51;36.85;;;16.55;;
38427;SDS011;24211;49.980;19.776;2023-04-09T05:25:26;36.63;;;16.10;;
38427;SDS011;24211;49.980;19.776;2023-04-09T05:27:54;32.28;;;15.23;;
38427;SDS011;24211;49.980;19.776;2023-04-09T05:30:23;30.58;;;14.25;;
38427;SDS011;24211;49.980;19.776;2023-04-09T05:32:52;30.25;;;14.23;;
38427;SDS011;24211;49.980;19.776;2023-04-09T05:35:24;31.17;;;13.45;;
38427;SDS011;24211;49.980;19.776;2023-04-09T05:37:51;28.95;;;13.13;;
38427;SDS011;24211;49.980;19.776;2023-04-09T05:40:19;28.58;;;13.38;;
38427;SDS011;24211;49.980;19.776;2023-04-09T05:42:48;34.15;;;14.23;;
38427;SDS011;24211;49.980;19.776;2023-04-09T05:45:23;34.10;;;15.05;;
38427;SDS011;24211;49.980;19.776;2023-04-09T05:47:52;31.98;;;15.05;;
38427;SDS011;24211;49.980;19.776;2023-04-09T05:50:21;31.40;;;14.68;;
38427;SDS011;24211;49.980;19.776;2023-04-09T05:52:52;29.85;;;15.10;;
38427;SDS011;24211;49.980;19.776;2023-04-09T05:55:27;31.17;;;15.38;;
38427;SDS011;24211;49.980;19.776;2023-04-09T05:57:58;30.70;;;14.10;;
38427;SDS011;24211;49.980;19.776;2023-04-09T06:00:26;30.92;;;14.82;;
38427;SDS011;24211;49.980;19.776;2023-04-09T06:02:54;35.33;;;14.82;;
38427;SDS011;24211;49.980;19.776;2023-04-09T06:05:21;33.30;;;15.45;;
38427;SDS011;24211;49.980;19.776;2023-04-09T06:07:50;33.00;;;15.70;;
38427;SDS011;24211;49.980;19.776;2023-04-09T06:10:17;33.33;;;15.73;;
38427;SDS011;24211;49.980;19.776;2023-04-09T06:12:46;37.60;;;16.35;;
38427;SDS011;24211;49.980;19.776;2023-04-09T06:15:14;38.88;;;18.30;;
38427;SDS011;24211;49.980;19.776;2023-04-09T06:17:41;40.13;;;18.02;;
38427;SDS011;24211;49.980;19.776;2023-04-09T06:20:09;39.70;;;18.92;;
38427;SDS011;24211;49.980;19.776;2023-04-09T06:22:36;43.00;;;19.88;;
38427;SDS011;24211;49.980;19.776;2023-04-09T06:25:04;46.53;;;20.48;;
38427;SDS011;24211;49.980;19.776;2023-04-09T06:27:31;41.92;;;19.13;;
38427;SDS011;24211;49.980;19.776;2023-04-09T06:29:59;46.67;;;20.90;;
38427;SDS011;24211;49.980;19.776;2023-04-09T06:32:26;44.90;;;21.38;;
38427;SDS011;24211;49.980;19.776;2023-04-09T06:34:54;47.67;;;21.50;;
38427;SDS011;24211;49.980;19.776;2023-04-09T06:37:21;50.03;;;22.55;;
38427;SDS011;24211;49.980;19.776;2023-04-09T06:39:48;50.03;;;22.83;;
38427;SDS011;24211;49.980;19.776;2023-04-09T06:42:26;53.40;;;23.63;;
38427;SDS011;24211;49.980;19.776;2023-04-09T06:45:03;51.85;;;23.23;;
38427;SDS011;24211;49.980;19.776;2023-04-09T06:47:33;49.90;;;22.70;;
38427;SDS011;24211;49.980;19.776;2023-04-09T06:50:02;49.08;;;22.58;;
38427;SDS011;24211;49.980;19.776;2023-04-09T06:52:30;51.08;;;23.40;;
38427;SDS011;24211;49.980;19.776;2023-04-09T06:54:57;56.45;;;24.20;;
38427;SDS011;24211;49.980;19.776;2023-04-09T06:57:24;52.53;;;23.42;;
38427;SDS011;24211;49.980;19.776;2023-04-09T06:59:52;51.70;;;24.17;;
38427;SDS011;24211;49.980;19.776;2023-04-09T07:02:20;52.70;;;24.25;;
38427;SDS011;24211;49.980;19.776;2023-04-09T07:04:47;50.75;;;24.63;;
38427;SDS011;24211;49.980;19.776;2023-04-09T07:07:15;53.55;;;25.48;;
38427;SDS011;24211;49.980;19.776;2023-04-09T07:09:43;49.20;;;23.63;;
38427;SDS011;24211;49.980;19.776;2023-04-09T07:12:10;53.63;;;23.48;;
38427;SDS011;24211;49.980;19.776;2023-04-09T07:14:38;45.83;;;22.40;;
38427;SDS011;24211;49.980;19.776;2023-04-09T07:17:05;46.08;;;21.30;;
38427;SDS011;24211;49.980;19.776;2023-04-09T07:19:32;45.55;;;21.45;;
38427;SDS011;24211;49.980;19.776;2023-04-09T07:22:00;44.45;;;20.58;;
38427;SDS011;24211;49.980;19.776;2023-04-09T07:24:27;43.25;;;19.88;;
38427;SDS011;24211;49.980;19.776;2023-04-09T07:26:54;42.13;;;19.60;;
38427;SDS011;24211;49.980;19.776;2023-04-09T07:29:22;44.67;;;20.38;;
38427;SDS011;24211;49.980;19.776;2023-04-09T07:31:49;40.97;;;19.88;;
38427;SDS011;24211;49.980;19.776;2023-04-09T07:34:16;42.40;;;20.33;;
38427;SDS011;24211;49.980;19.776;2023-04-09T07:36:44;37.67;;;18.15;;
38427;SDS011;24211;49.980;19.776;2023-04-09T07:39:11;39.90;;;19.10;;
38427;SDS011;24211;49.980;19.776;2023-04-09T07:41:38;38.08;;;17.65;;
38427;SDS011;24211;49.980;19.776;2023-04-09T07:44:06;36.63;;;17.10;;
38427;SDS011;24211;49.980;19.776;2023-04-09T07:46:34;36.20;;;16.83;;
38427;SDS011;24211;49.980;19.776;2023-04-09T07:49:01;34.67;;;17.33;;
38427;SDS011;24211;49.980;19.776;2023-04-09T07:51:29;30.20;;;15.35;;
38427;SDS011;24211;49.980;19.776;2023-04-09T07:53:56;30.95;;;15.23;;
38427;SDS011;24211;49.980;19.776;2023-04-09T07:56:24;32.35;;;15.15;;
38427;SDS011;24211;49.980;19.776;2023-04-09T07:58:51;28.85;;;15.10;;
38427;SDS011;24211;49.980;19.776;2023-04-09T08:01:19;29.80;;;14.63;;
38427;SDS011;24211;49.980;19.776;2023-04-09T08:03:50;28.08;;;14.43;;
38427;SDS011;24211;49.980;19.776;2023-04-09T08:06:18;24.23;;;12.85;;
38427;SDS011;24211;49.980;19.776;2023-04-09T08:08:45;29.23;;;13.40;;
38427;SDS011;24211;49.980;19.776;2023-04-09T08:11:12;25.75;;;12.70;;
38427;SDS011;24211;49.980;19.776;2023-04-09T08:13:39;23.92;;;12.90;;
38427;SDS011;24211;49.980;19.776;2023-04-09T08:16:07;27.73;;;13.05;;
38427;SDS011;24211;49.980;19.776;2023-04-09T08:18:34;26.55;;;12.18;;
38427;SDS011;24211;49.980;19.776;2023-04-09T08:21:03;22.40;;;11.85;;
38427;SDS011;24211;49.980;19.776;2023-04-09T08:23:31;20.33;;;11.30;;
38427;SDS011;24211;49.980;19.776;2023-04-09T08:25:58;23.27;;;11.70;;
38427;SDS011;24211;49.980;19.776;2023-04-09T08:28:25;22.63;;;11.23;;
38427;SDS011;24211;49.980;19.776;2023-04-09T08:30:53;21.58;;;11.20;;
38427;SDS011;24211;49.980;19.776;2023-04-09T08:33:20;22.40;;;11.38;;
38427;SDS011;24211;49.980;19.776;2023-04-09T08:35:47;22.35;;;11.00;;
38427;SDS011;24211;49.980;19.776;2023-04-09T08:38:15;22.30;;;11.20;;
38427;SDS011;24211;49.980;19.776;2023-04-09T08:40:42;19.85;;;10.65;;
38427;SDS011;24211;49.980;19.776;2023-04-09T08:43:09;22.60;;;11.15;;
38427;SDS011;24211;49.980;19.776;2023-04-09T08:45:44;21.35;;;11.02;;
38427;SDS011;24211;49.980;19.776;2023-04-09T08:48:13;19.27;;;10.63;;
38427;SDS011;24211;49.980;19.776;2023-04-09T08:50:42;19.70;;;10.73;;
38427;SDS011;24211;49.980;19.776;2023-04-09T08:53:12;20.33;;;10.48;;
38427;SDS011;24211;49.980;19.776;2023-04-09T08:55:43;19.42;;;10.40;;
38427;SDS011;24211;49.980;19.776;2023-04-09T08:58:12;20.13;;;10.00;;
38427;SDS011;24211;49.980;19.776;2023-04-09T09:00:39;18.77;;;10.68;;
38427;SDS011;24211;49.980;19.776;2023-04-09T09:03:08;18.60;;;9.70;;
38427;SDS011;24211;49.980;19.776;2023-04-09T09:05:41;24.20;;;11.30;;
38427;SDS011;24211;49.980;19.776;2023-04-09T09:08:13;20.95;;;11.18;;
38427;SDS011;24211;49.980;19.776;2023-04-09T09:10:52;19.00;;;10.52;;
38427;SDS011;24211;49.980;19.776;2023-04-09T09:13:25;20.58;;;11.02;;
38427;SDS011;24211;49.980;19.776;2023-04-09T09:15:54;19.83;;;10.38;;
38427;SDS011;24211;49.980;19.776;2023-04-09T09:18:43;19.83;;;10.38;;
38427;SDS011;24211;49.980;19.776;2023-04-09T09:21:11;16.42;;;9.38;;
38427;SDS011;24211;49.980;19.776;2023-04-09T09:23:41;16.27;;;9.02;;
38427;SDS011;24211;49.980;19.776;2023-04-09T09:26:12;15.98;;;8.63;;
38427;SDS011;24211;49.980;19.776;2023-04-09T09:28:46;16.00;;;8.70;;
38427;SDS011;24211;49.980;19.776;2023-04-09T09:31:16;13.65;;;8.15;;
38427;SDS011;24211;49.980;19.776;2023-04-09T09:33:45;13.75;;;7.63;;
38427;SDS011;24211;49.980;19.776;2023-04-09T09:36:14;13.15;;;7.80;;
38427;SDS011;24211;49.980;19.776;2023-04-09T09:38:53;14.50;;;7.78;;
38427;SDS011;24211;49.980;19.776;2023-04-09T09:41:23;12.35;;;7.72;;
38427;SDS011;24211;49.980;19.776;2023-04-09T09:43:51;12.80;;;7.65;;
38427;SDS011;24211;49.980;19.776;2023-04-09T09:46:19;14.20;;;7.47;;
38427;SDS011;24211;49.980;19.776;2023-04-09T09:48:48;12.05;;;7.22;;
38427;SDS011;24211;49.980;19.776;2023-04-09T09:51:16;12.10;;;6.80;;
38427;SDS011;24211;49.980;19.776;2023-04-09T09:53:44;12.27;;;6.85;;
38427;SDS011;24211;49.980;19.776;2023-04-09T09:56:18;13.18;;;7.03;;
38427;SDS011;24211;49.980;19.776;2023-04-09T09:59:05;11.85;;;6.85;;
38427;SDS011;24211;49.980;19.776;2023-04-09T10:01:56;13.43;;;7.05;;
38427;SDS011;24211;49.980;19.776;2023-04-09T10:04:28;10.15;;;6.40;;
38427;SDS011;24211;49.980;19.776;2023-04-09T10:07:01;12.30;;;7.30;;
38427;SDS011;24211;49.980;19.776;2023-04-09T10:09:44;12.05;;;7.10;;
38427;SDS011;24211;49.980;19.776;2023-04-09T10:12:18;12.95;;;7.78;;
38427;SDS011;24211;49.980;19.776;2023-04-09T10:14:50;13.10;;;7.57;;
38427;SDS011;24211;49.980;19.776;2023-04-09T10:17:22;13.40;;;7.55;;
38427;SDS011;24211;49.980;19.776;2023-04-09T10:20:00;12.13;;;7.25;;
38427;SDS011;24211;49.980;19.776;2023-04-09T10:22:46;11.70;;;7.20;;
38427;SDS011;24211;49.980;19.776;2023-04-09T10:25:17;12.77;;;7.30;;
38427;SDS011;24211;49.980;19.776;2023-04-09T10:27:45;12.15;;;7.03;;
38427;SDS011;24211;49.980;19.776;2023-04-09T10:30:32;11.68;;;6.45;;
38427;SDS011;24211;49.980;19.776;2023-04-09T10:33:12;12.63;;;6.90;;
38427;SDS011;24211;49.980;19.776;2023-04-09T10:35:42;11.87;;;6.90;;
38427;SDS011;24211;49.980;19.776;2023-04-09T10:38:13;12.38;;;7.10;;
38427;SDS011;24211;49.980;19.776;2023-04-09T10:40:41;12.13;;;6.70;;
38427;SDS011;24211;49.980;19.776;2023-04-09T10:43:18;13.40;;;7.53;;
38427;SDS011;24211;49.980;19.776;2023-04-09T10:45:47;13.00;;;7.60;;
38427;SDS011;24211;49.980;19.776;2023-04-09T10:48:20;13.45;;;7.63;;
38427;SDS011;24211;49.980;19.776;2023-04-09T10:50:51;13.57;;;7.53;;
38427;SDS011;24211;49.980;19.776;2023-04-09T10:53:22;13.27;;;7.57;;
38427;SDS011;24211;49.980;19.776;2023-04-09T10:55:52;13.20;;;7.80;;
38427;SDS011;24211;49.980;19.776;2023-04-09T10:58:21;13.85;;;8.05;;
38427;SDS011;24211;49.980;19.776;2023-04-09T11:00:49;12.40;;;7.30;;
38427;SDS011;24211;49.980;19.776;2023-04-09T11:03:23;12.68;;;7.30;;
38427;SDS011;24211;49.980;19.776;2023-04-09T11:06:02;14.07;;;7.85;;
38427;SDS011;24211;49.980;19.776;2023-04-09T11:08:35;12.60;;;7.18;;
38427;SDS011;24211;49.980;19.776;2023-04-09T11:11:04;13.40;;;7.45;;
38427;SDS011;24211;49.980;19.776;2023-04-09T11:13:32;11.70;;;7.07;;
38427;SDS011;24211;49.980;19.776;2023-04-09T11:16:00;12.07;;;7.13;;
38427;SDS011;24211;49.980;19.776;2023-04-09T11:18:33;13.52;;;7.40;;
38427;SDS011;24211;49.980;19.776;2023-04-09T11:21:02;11.38;;;6.88;;
38427;SDS011;24211;49.980;19.776;2023-04-09T11:23:30;12.27;;;6.78;;
38427;SDS011;24211;49.980;19.776;2023-04-09T11:25:58;11.38;;;7.00;;
38427;SDS011;24211;49.980;19.776;2023-04-09T11:28:27;10.73;;;6.80;;
38427;SDS011;24211;49.980;19.776;2023-04-09T11:30:54;11.45;;;6.88;;
38427;SDS011;24211;49.980;19.776;2023-04-09T11:33:22;11.70;;;7.47;;
38427;SDS011;24211;49.980;19.776;2023-04-09T11:35:57;11.80;;;6.85;;
38427;SDS011;24211;49.980;19.776;2023-04-09T11:38:25;11.77;;;7.00;;
38427;SDS011;24211;49.980;19.776;2023-04-09T11:40:55;13.20;;;7.15;;
38427;SDS011;24211;49.980;19.776;2023-04-09T11:43:24;11.77;;;6.97;;
38427;SDS011;24211;49.980;19.776;2023-04-09T11:45:51;12.10;;;6.95;;
38427;SDS011;24211;49.980;19.776;2023-04-09T11:48:19;13.13;;;7.35;;
38427;SDS011;24211;49.980;19.776;2023-04-09T11:50:48;12.52;;;6.68;;
38427;SDS011;24211;49.980;19.776;2023-04-09T11:53:17;12.95;;;6.90;;
38427;SDS011;24211;49.980;19.776;2023-04-09T11:55:50;12.35;;;7.28;;
38427;SDS011;24211;49.980;19.776;2023-04-09T11:58:21;12.88;;;7.00;;
38427;SDS011;24211;49.980;19.776;2023-04-09T12:00:51;13.07;;;7.22;;
38427;SDS011;24211;49.980;19.776;2023-04-09T12:03:30;18.33;;;9.88;;
38427;SDS011;24211;49.980;19.776;2023-04-09T12:05:59;12.02;;;7.30;;
38427;SDS011;24211;49.980;19.776;2023-04-09T12:08:29;14.73;;;7.65;;
38427;SDS011;24211;49.980;19.776;2023-04-09T12:11:06;13.57;;;7.60;;
38427;SDS011;24211;49.980;19.776;2023-04-09T12:13:41;15.80;;;8.60;;
38427;SDS011;24211;49.980;19.776;2023-04-09T12:16:11;13.52;;;7.63;;
38427;SDS011;24211;49.980;19.776;2023-04-09T12:18:39;11.93;;;6.90;;
38427;SDS011;24211;49.980;19.776;2023-04-09T12:21:07;12.52;;;7.30;;
38427;SDS011;24211;49.980;19.776;2023-04-09T12:23:34;13.55;;;7.38;;
38427;SDS011;24211;49.980;19.776;2023-04-09T12:26:02;12.43;;;7.10;;
38427;SDS011;24211;49.980;19.776;2023-04-09T12:28:29;13.98;;;8.10;;
38427;SDS011;24211;49.980;19.776;2023-04-09T12:30:56;12.57;;;7.68;;
38427;SDS011;24211;49.980;19.776;2023-04-09T12:33:25;10.95;;;6.95;;
38427;SDS011;24211;49.980;19.776;2023-04-09T12:35:52;13.60;;;7.22;;
38427;SDS011;24211;49.980;19.776;2023-04-09T12:38:20;12.15;;;7.22;;
38427;SDS011;24211;49.980;19.776;2023-04-09T12:40:47;12.00;;;6.72;;
38427;SDS011;24211;49.980;19.776;2023-04-09T12:43:14;12.45;;;7.18;;
38427;SDS011;24211;49.980;19.776;2023-04-09T12:45:41;11.90;;;6.97;;
38427;SDS011;24211;49.980;19.776;2023-04-09T12:48:09;11.13;;;6.53;;
38427;SDS011;24211;49.980;19.776;2023-04-09T12:50:37;11.60;;;6.70;;
38427;SDS011;24211;49.980;19.776;2023-04-09T12:53:04;11.15;;;6.18;;
38427;SDS011;24211;49.980;19.776;2023-04-09T12:55:31;10.65;;;6.55;;
38427;SDS011;24211;49.980;19.776;2023-04-09T12:57:59;12.73;;;6.80;;
38427;SDS011;24211;49.980;19.776;2023-04-09T13:00:27;10.65;;;6.82;;
38427;SDS011;24211;49.980;19.776;2023-04-09T13:02:56;11.13;;;6.60;;
38427;SDS011;24211;49.980;19.776;2023-04-09T13:05:24;11.40;;;6.43;;
38427;SDS011;24211;49.980;19.776;2023-04-09T13:07:52;10.77;;;6.35;;
38427;SDS011;24211;49.980;19.776;2023-04-09T13:10:19;10.50;;;6.20;;
38427;SDS011;24211;49.980;19.776;2023-04-09T13:12:46;11.25;;;6.43;;
38427;SDS011;24211;49.980;19.776;2023-04-09T13:15:13;11.02;;;6.15;;
38427;SDS011;24211;49.980;19.776;2023-04-09T13:17:41;12.15;;;6.38;;
38427;SDS011;24211;49.980;19.776;2023-04-09T13:20:08;11.98;;;6.60;;
38427;SDS011;24211;49.980;19.776;2023-04-09T13:22:36;11.45;;;6.57;;
38427;SDS011;24211;49.980;19.776;2023-04-09T13:25:03;10.93;;;6.13;;
38427;SDS011;24211;49.980;19.776;2023-04-09T13:27:31;12.20;;;6.88;;
38427;SDS011;24211;49.980;19.776;2023-04-09T13:29:58;12.63;;;6.95;;
38427;SDS011;24211;49.980;19.776;2023-04-09T13:32:26;11.32;;;6.95;;
38427;SDS011;24211;49.980;19.776;2023-04-09T13:34:53;13.88;;;7.57;;
38427;SDS011;24211;49.980;19.776;2023-04-09T13:37:21;11.98;;;7.32;;
38427;SDS011;24211;49.980;19.776;2023-04-09T13:39:48;11.88;;;7.00;;
38427;SDS011;24211;49.980;19.776;2023-04-09T13:42:17;11.40;;;6.90;;
38427;SDS011;24211;49.980;19.776;2023-04-09T13:44:44;11.75;;;6.95;;
38427;SDS011;24211;49.980;19.776;2023-04-09T13:47:12;10.48;;;6.50;;
38427;SDS011;24211;49.980;19.776;2023-04-09T13:49:41;10.40;;;6.72;;
38427;SDS011;24211;49.980;19.776;2023-04-09T13:52:10;12.63;;;7.43;;
38427;SDS011;24211;49.980;19.776;2023-04-09T13:54:38;11.15;;;6.38;;
38427;SDS011;24211;49.980;19.776;2023-04-09T13:57:06;11.10;;;6.57;;
38427;SDS011;24211;49.980;19.776;2023-04-09T13:59:33;10.20;;;6.25;;
38427;SDS011;24211;49.980;19.776;2023-04-09T14:02:01;10.20;;;6.22;;
38427;SDS011;24211;49.980;19.776;2023-04-09T14:04:29;11.43;;;6.60;;
38427;SDS011;24211;49.980;19.776;2023-04-09T14:06:57;11.23;;;6.65;;
38427;SDS011;24211;49.980;19.776;2023-04-09T14:09:24;11.45;;;6.63;;
38427;SDS011;24211;49.980;19.776;2023-04-09T14:11:52;11.40;;;6.32;;
38427;SDS011;24211;49.980;19.776;2023-04-09T14:14:20;11.00;;;6.85;;
38427;SDS011;24211;49.980;19.776;2023-04-09T14:16:47;10.65;;;6.40;;
38427;SDS011;24211;49.980;19.776;2023-04-09T14:19:15;10.25;;;6.28;;
38427;SDS011;24211;49.980;19.776;2023-04-09T14:21:43;11.38;;;6.70;;
38427;SDS011;24211;49.980;19.776;2023-04-09T14:24:10;12.02;;;6.78;;
38427;SDS011;24211;49.980;19.776;2023-04-09T14:26:38;10.38;;;6.60;;
38427;SDS011;24211;49.980;19.776;2023-04-09T14:29:05;11.02;;;6.38;;
38427;SDS011;24211;49.980;19.776;2023-04-09T14:31:32;10.65;;;6.38;;
38427;SDS011;24211;49.980;19.776;2023-04-09T14:33:59;12.98;;;7.30;;
38427;SDS011;24211;49.980;19.776;2023-04-09T14:36:26;11.40;;;6.80;;
38427;SDS011;24211;49.980;19.776;2023-04-09T14:38:54;11.48;;;7.15;;
38427;SDS011;24211;49.980;19.776;2023-04-09T14:41:23;12.00;;;6.70;;
38427;SDS011;24211;49.980;19.776;2023-04-09T14:43:51;12.02;;;7.22;;